createdAt,value
2019-04-27T00:01:18.332Z,11.38
2019-04-27T00:03:54.013Z,11.34
2019-04-27T00:06:25.614Z,11.29
2019-04-27T00:08:56.716Z,11.26
2019-04-27T00:11:45.549Z,11.27
2019-04-27T00:14:15.010Z,11.35
2019-04-27T00:16:53.593Z,11.33
2019-04-27T00:19:27.393Z,11.31
2019-04-27T00:21:57.571Z,11.27
2019-04-27T00:24:27.024Z,11.26
2019-04-27T00:26:56.592Z,11.24
2019-04-27T00:29:26.134Z,11.22
2019-04-27T00:31:55.886Z,11.18
2019-04-27T00:34:25.376Z,11.24
2019-04-27T00:36:59.311Z,11.23
2019-04-27T00:39:39.396Z,11.26
2019-04-27T00:42:09.053Z,11.29
2019-04-27T00:44:38.550Z,11.26
2019-04-27T00:47:08.140Z,11.28
2019-04-27T00:49:38.631Z,11.33
2019-04-27T00:52:08.228Z,11.34
2019-04-27T00:54:37.785Z,11.37
2019-04-27T00:57:09.062Z,11.38
2019-04-27T00:59:56.053Z,11.41
2019-04-27T01:02:43.656Z,11.40
2019-04-27T01:05:14.866Z,11.42
2019-04-27T01:07:44.381Z,11.40
2019-04-27T01:10:13.956Z,11.37
2019-04-27T01:12:46.476Z,11.36
2019-04-27T01:15:15.891Z,11.31
2019-04-27T01:17:45.329Z,11.30
2019-04-27T01:20:14.896Z,11.22
2019-04-27T01:22:44.424Z,11.17
2019-04-27T01:25:14.011Z,11.11
2019-04-27T01:27:54.642Z,11.09
2019-04-27T01:30:25.844Z,11.05
2019-04-27T01:32:56.278Z,11.02
2019-04-27T01:35:25.971Z,10.95
2019-04-27T01:37:58.984Z,10.93
2019-04-27T01:40:29.524Z,10.92
2019-04-27T01:42:59.162Z,10.88
2019-04-27T01:45:29.109Z,10.87
2019-04-27T01:47:59.588Z,10.89
2019-04-27T01:50:29.165Z,10.86
2019-04-27T01:52:59.240Z,10.87
2019-04-27T01:55:31.418Z,10.85
2019-04-27T01:58:03.772Z,10.83
2019-04-27T02:00:39.575Z,10.79
2019-04-27T02:03:12.438Z,10.74
2019-04-27T02:05:56.134Z,10.65
2019-04-27T02:08:25.627Z,10.65
2019-04-27T02:10:55.072Z,10.63
2019-04-27T02:13:24.566Z,10.64
2019-04-27T02:15:54.146Z,10.65
2019-04-27T02:18:34.624Z,10.61
2019-04-27T02:20:55.449Z,10.58
2019-04-27T02:23:24.894Z,10.51
2019-04-27T02:25:54.498Z,10.46
2019-04-27T02:28:29.425Z,10.46
2019-04-27T02:31:09.785Z,10.47
2019-04-27T02:33:50.000Z,10.51
2019-04-27T02:36:22.327Z,10.49
2019-04-27T02:38:51.827Z,10.37
2019-04-27T02:41:21.367Z,10.34
2019-04-27T02:44:01.798Z,10.30
2019-04-27T02:46:31.753Z,10.28
2019-04-27T02:49:06.427Z,10.27
2019-04-27T02:51:34.013Z,10.24
2019-04-27T02:54:03.451Z,10.23
2019-04-27T02:56:32.894Z,10.26
2019-04-27T02:59:02.316Z,10.26
2019-04-27T03:01:33.394Z,10.17
2019-04-27T03:04:02.827Z,10.16
2019-04-27T03:06:32.344Z,10.18
2019-04-27T03:09:01.875Z,10.16
2019-04-27T03:11:33.078Z,10.17
2019-04-27T03:14:10.297Z,10.14
2019-04-27T03:16:52.042Z,10.12
2019-04-27T03:19:39.810Z,10.09
2019-04-27T03:22:23.701Z,10.04
2019-04-27T03:25:01.067Z,10.02
2019-04-27T03:27:40.507Z,10.03
2019-04-27T03:30:12.578Z,10.00
2019-04-27T03:32:43.303Z,10.01
2019-04-27T03:35:14.130Z,10.03
2019-04-27T03:37:44.452Z,10.03
2019-04-27T03:40:14.242Z,10.01
2019-04-27T03:42:45.486Z,9.99
2019-04-27T03:45:15.043Z,9.95
2019-04-27T03:47:45.134Z,9.86
2019-04-27T03:50:16.538Z,9.84
2019-04-27T03:52:59.932Z,9.80
2019-04-27T03:55:43.671Z,9.77
2019-04-27T03:58:21.410Z,9.75
2019-04-27T04:00:51.972Z,9.74
2019-04-27T04:03:20.722Z,9.74
2019-04-27T04:05:52.324Z,9.73
2019-04-27T04:08:21.652Z,9.69
2019-04-27T04:10:52.803Z,9.67
2019-04-27T04:13:29.909Z,9.63
2019-04-27T04:16:00.979Z,9.62
2019-04-27T04:18:32.053Z,9.62
2019-04-27T04:21:03.157Z,9.59
2019-04-27T04:23:32.596Z,9.57
2019-04-27T04:26:02.037Z,9.56
2019-04-27T04:28:31.457Z,9.57
2019-04-27T04:31:00.889Z,9.56
2019-04-27T04:33:30.571Z,9.54
2019-04-27T04:36:00.053Z,9.53
2019-04-27T04:38:30.501Z,9.53
2019-04-27T04:41:10.853Z,9.57
2019-04-27T04:43:59.849Z,9.57
2019-04-27T04:46:30.138Z,9.53
2019-04-27T04:49:00.348Z,9.57
2019-04-27T04:51:30.496Z,9.52
2019-04-27T04:54:00.195Z,9.44
2019-04-27T04:56:29.678Z,9.55
2019-04-27T04:59:00.047Z,9.62
2019-04-27T05:01:30.784Z,9.66
2019-04-27T05:04:02.322Z,9.72
2019-04-27T05:06:33.465Z,9.84
2019-04-27T05:09:03.212Z,9.90
2019-04-27T05:11:34.449Z,9.92
2019-04-27T05:14:03.944Z,9.97
2019-04-27T05:16:33.375Z,10.06
2019-04-27T05:19:02.823Z,10.14
2019-04-27T05:21:35.734Z,10.21
2019-04-27T05:24:09.406Z,10.29
2019-04-27T05:26:39.764Z,10.42
2019-04-27T05:29:10.373Z,10.56
2019-04-27T05:31:40.277Z,10.62
2019-04-27T05:34:09.813Z,10.63
2019-04-27T05:36:43.533Z,10.71
2019-04-27T05:39:13.140Z,10.73
2019-04-27T05:41:41.850Z,10.73
2019-04-27T05:44:18.299Z,10.74
2019-04-27T05:46:49.313Z,10.74
2019-04-27T05:49:41.208Z,10.75
2019-04-27T05:52:29.753Z,10.79
2019-04-27T05:54:59.650Z,10.82
2019-04-27T05:57:31.518Z,10.74
2019-04-27T06:00:02.178Z,10.77
2019-04-27T06:02:33.429Z,10.85
2019-04-27T06:05:02.932Z,10.85
2019-04-27T06:07:32.382Z,10.87
2019-04-27T06:10:01.801Z,10.77
2019-04-27T06:12:31.318Z,10.86
2019-04-27T06:15:02.272Z,10.91
2019-04-27T06:17:31.733Z,10.92
2019-04-27T06:20:01.152Z,10.94
2019-04-27T06:22:31.685Z,10.97
2019-04-27T06:25:01.117Z,11.03
2019-04-27T06:27:31.076Z,11.09
2019-04-27T06:30:00.565Z,11.15
2019-04-27T06:32:30.241Z,11.24
2019-04-27T06:34:59.798Z,11.29
2019-04-27T06:37:29.637Z,11.35
2019-04-27T06:40:00.312Z,11.45
2019-04-27T06:42:29.986Z,11.50
2019-04-27T06:45:00.090Z,11.58
2019-04-27T06:47:32.732Z,11.66
2019-04-27T06:50:02.183Z,11.64
2019-04-27T06:52:31.614Z,11.80
2019-04-27T06:55:01.180Z,11.96
2019-04-27T06:57:31.711Z,12.06
2019-04-27T07:00:01.161Z,12.09
2019-04-27T07:02:32.073Z,12.09
2019-04-27T07:05:01.606Z,12.20
2019-04-27T07:07:32.571Z,12.34
2019-04-27T07:10:02.397Z,12.48
2019-04-27T07:12:31.888Z,12.52
2019-04-27T07:15:01.410Z,12.58
2019-04-27T07:17:30.911Z,12.61
2019-04-27T07:20:00.371Z,12.72
2019-04-27T07:22:31.656Z,12.81
2019-04-27T07:25:01.115Z,12.88
2019-04-27T07:27:30.648Z,13.02
2019-04-27T07:30:01.729Z,13.10
2019-04-27T07:32:31.453Z,13.17
2019-04-27T07:35:00.873Z,13.29
2019-04-27T07:37:30.622Z,13.43
2019-04-27T07:40:00.075Z,13.50
2019-04-27T07:42:32.185Z,13.53
2019-04-27T07:45:19.409Z,13.51
2019-04-27T07:47:50.670Z,13.58
2019-04-27T07:50:20.139Z,13.72
2019-04-27T07:52:49.587Z,13.85
2019-04-27T07:55:19.122Z,13.88
2019-04-27T07:57:49.444Z,14.00
2019-04-27T08:00:20.598Z,14.09
2019-04-27T08:02:50.125Z,14.24
2019-04-27T08:05:19.544Z,14.37
2019-04-27T08:07:49.260Z,14.37
2019-04-27T08:10:19.459Z,14.42
2019-04-27T08:12:49.814Z,14.56
2019-04-27T08:15:19.484Z,14.87
2019-04-27T08:17:49.363Z,14.98
2019-04-27T08:20:21.147Z,14.98
2019-04-27T08:22:50.111Z,14.98
2019-04-27T08:25:20.114Z,15.08
2019-04-27T08:27:53.940Z,15.17
2019-04-27T08:30:36.856Z,15.30
2019-04-27T08:33:09.247Z,15.33
2019-04-27T08:35:38.944Z,15.38
2019-04-27T08:38:09.797Z,15.33
2019-04-27T08:40:39.443Z,15.59
2019-04-27T08:43:09.323Z,15.57
2019-04-27T08:45:41.965Z,15.49
2019-04-27T08:48:11.405Z,15.55
2019-04-27T08:50:42.227Z,15.81
2019-04-27T08:53:11.800Z,15.91
2019-04-27T08:55:41.214Z,15.94
2019-04-27T08:58:10.652Z,16.20
2019-04-27T09:00:40.140Z,16.16
2019-04-27T09:03:09.729Z,16.11
2019-04-27T09:05:39.211Z,16.20
2019-04-27T09:08:22.405Z,16.30
2019-04-27T09:10:53.545Z,16.46
2019-04-27T09:13:33.705Z,16.54
2019-04-27T09:16:20.948Z,16.54
2019-04-27T09:18:52.126Z,16.60
2019-04-27T09:21:21.553Z,16.65
2019-04-27T09:23:51.077Z,16.85
2019-04-27T09:26:20.536Z,17.00
2019-04-27T09:28:49.967Z,16.90
2019-04-27T09:31:19.678Z,16.95
2019-04-27T09:33:49.175Z,17.06
2019-04-27T09:36:18.612Z,17.19
2019-04-27T09:38:48.102Z,17.24
2019-04-27T09:41:17.553Z,17.19
2019-04-27T09:43:46.961Z,17.31
2019-04-27T09:46:16.482Z,17.56
2019-04-27T09:48:46.620Z,17.65
2019-04-27T09:51:16.343Z,17.60
2019-04-27T09:53:45.958Z,17.38
2019-04-27T09:56:16.475Z,17.49
2019-04-27T09:58:47.105Z,17.24
2019-04-27T10:01:18.163Z,17.04
2019-04-27T10:03:48.957Z,17.08
2019-04-27T10:06:18.442Z,17.33
2019-04-27T10:08:47.958Z,17.61
2019-04-27T10:11:17.445Z,17.52
2019-04-27T10:13:46.959Z,17.68
2019-04-27T10:16:16.545Z,17.97
2019-04-27T10:18:47.911Z,18.27
2019-04-27T10:21:17.410Z,17.98
2019-04-27T10:23:48.361Z,18.16
2019-04-27T10:26:17.791Z,18.26
2019-04-27T10:28:48.880Z,18.12
2019-04-27T10:31:20.108Z,18.33
2019-04-27T10:33:51.086Z,18.26
2019-04-27T10:36:23.233Z,18.24
2019-04-27T10:38:52.658Z,18.17
2019-04-27T10:41:22.112Z,18.28
2019-04-27T10:43:51.551Z,18.22
2019-04-27T10:46:21.015Z,18.32
2019-04-27T10:48:50.436Z,18.31
2019-04-27T10:51:19.961Z,18.18
2019-04-27T10:53:49.379Z,18.33
2019-04-27T10:56:18.884Z,18.31
2019-04-27T10:58:49.381Z,18.30
2019-04-27T11:01:19.206Z,18.08
2019-04-27T11:03:51.892Z,18.04
2019-04-27T11:06:38.125Z,18.12
2019-04-27T11:09:13.361Z,18.32
2019-04-27T11:11:42.934Z,18.45
2019-04-27T11:14:12.487Z,18.42
2019-04-27T11:16:41.996Z,18.42
2019-04-27T11:19:11.483Z,18.31
2019-04-27T11:21:40.925Z,18.16
2019-04-27T11:24:10.923Z,18.19
2019-04-27T11:26:40.369Z,18.17
2019-04-27T11:29:09.894Z,18.20
2019-04-27T11:31:40.481Z,18.12
2019-04-27T11:34:10.088Z,17.80
2019-04-27T11:36:41.360Z,18.02
2019-04-27T11:39:13.861Z,18.08
2019-04-27T11:41:43.797Z,17.88
2019-04-27T11:44:13.223Z,17.91
2019-04-27T11:46:42.779Z,18.17
2019-04-27T11:49:15.674Z,18.19
2019-04-27T11:51:46.624Z,18.18
2019-04-27T11:54:16.287Z,18.46
2019-04-27T11:56:47.188Z,18.83
2019-04-27T11:59:16.806Z,19.00
2019-04-27T12:01:47.981Z,18.93
2019-04-27T12:04:18.920Z,18.97
2019-04-27T12:06:48.347Z,18.94
2019-04-27T12:09:17.862Z,18.96
2019-04-27T12:11:49.175Z,19.11
2019-04-27T12:14:20.350Z,18.78
2019-04-27T12:16:50.931Z,18.78
2019-04-27T12:19:26.707Z,18.70
2019-04-27T12:21:56.608Z,18.49
2019-04-27T12:24:26.736Z,18.40
2019-04-27T12:26:59.659Z,18.28
2019-04-27T12:29:47.349Z,18.21
2019-04-27T12:32:18.845Z,18.17
2019-04-27T12:34:48.370Z,18.25
2019-04-27T12:37:19.679Z,18.34
2019-04-27T12:39:50.810Z,18.37
2019-04-27T12:42:21.119Z,18.11
2019-04-27T12:44:51.975Z,18.00
2019-04-27T12:47:21.732Z,17.95
2019-04-27T12:49:51.261Z,17.62
2019-04-27T12:52:22.292Z,17.50
2019-04-27T12:55:05.993Z,17.28
2019-04-27T12:57:37.205Z,17.20
2019-04-27T13:00:09.525Z,17.03
2019-04-27T13:02:39.542Z,16.90
2019-04-27T13:05:09.202Z,16.76
2019-04-27T13:07:38.656Z,16.78
2019-04-27T13:10:08.336Z,16.70
2019-04-27T13:12:37.817Z,16.66
2019-04-27T13:15:11.103Z,16.64
2019-04-27T13:17:40.649Z,16.59
2019-04-27T13:20:10.627Z,16.50
2019-04-27T13:22:40.216Z,16.22
2019-04-27T13:25:11.794Z,16.15
2019-04-27T13:27:43.949Z,16.06
2019-04-27T13:30:13.665Z,16.13
2019-04-27T13:32:43.500Z,16.00
2019-04-27T13:35:13.344Z,15.91
2019-04-27T13:37:43.903Z,15.83
2019-04-27T13:40:17.036Z,15.82
2019-04-27T13:42:57.280Z,15.73
2019-04-27T13:45:40.010Z,15.68
2019-04-27T13:48:11.140Z,15.24
2019-04-27T13:50:42.291Z,15.22
2019-04-27T13:53:11.815Z,15.03
2019-04-27T13:55:41.312Z,14.87
2019-04-27T13:58:12.191Z,14.83
2019-04-27T14:00:41.955Z,14.57
2019-04-27T14:03:14.656Z,14.25
2019-04-27T14:05:44.282Z,13.69
2019-04-27T14:08:13.717Z,13.51
2019-04-27T14:10:43.278Z,13.21
2019-04-27T14:13:12.724Z,13.01
2019-04-27T14:15:42.233Z,12.96
2019-04-27T14:18:11.677Z,12.81
2019-04-27T14:20:41.104Z,12.75
2019-04-27T14:23:12.199Z,12.75
2019-04-27T14:25:42.113Z,12.84
2019-04-27T14:28:11.630Z,12.85
2019-04-27T14:30:41.208Z,12.90
2019-04-27T14:33:10.884Z,12.93
2019-04-27T14:35:42.159Z,12.99
2019-04-27T14:38:11.647Z,12.97
2019-04-27T14:40:45.495Z,12.93
2019-04-27T14:43:15.060Z,13.04
2019-04-27T14:45:44.512Z,13.10
2019-04-27T14:48:18.418Z,13.08
2019-04-27T14:50:48.620Z,13.11
2019-04-27T14:53:18.123Z,13.18
2019-04-27T14:55:49.021Z,13.10
2019-04-27T14:58:19.648Z,13.11
2019-04-27T15:00:49.862Z,13.09
2019-04-27T15:03:19.623Z,13.07
2019-04-27T15:05:49.794Z,13.06
2019-04-27T15:08:20.467Z,13.19
2019-04-27T15:10:49.998Z,13.21
2019-04-27T15:13:19.493Z,13.27
2019-04-27T15:15:48.940Z,13.31
2019-04-27T15:18:19.749Z,13.32
2019-04-27T15:20:51.745Z,13.30
2019-04-27T15:23:21.362Z,13.31
2019-04-27T15:25:53.303Z,13.31
2019-04-27T15:28:24.363Z,13.29
2019-04-27T15:30:59.577Z,13.20
2019-04-27T15:33:53.270Z,13.17
2019-04-27T15:36:29.494Z,13.15
2019-04-27T15:39:07.905Z,13.13
2019-04-27T15:41:39.263Z,13.04
2019-04-27T15:44:09.460Z,12.91
2019-04-27T15:46:39.348Z,12.95
2019-04-27T15:49:11.514Z,13.07
2019-04-27T15:51:40.132Z,13.14
2019-04-27T15:54:10.729Z,13.13
2019-04-27T15:56:41.288Z,13.07
2019-04-27T15:59:10.792Z,13.00
2019-04-27T16:01:40.481Z,12.88
2019-04-27T16:04:11.458Z,12.86
2019-04-27T16:06:42.831Z,12.88
2019-04-27T16:09:24.214Z,12.95
2019-04-27T16:11:57.783Z,12.98
2019-04-27T16:14:21.197Z,12.96
2019-04-27T16:16:52.528Z,12.71
2019-04-27T16:19:21.967Z,12.07
2019-04-27T16:21:54.276Z,11.86
2019-04-27T16:24:22.556Z,11.56
2019-04-27T16:26:55.882Z,11.08
2019-04-27T16:29:29.845Z,11.08
2019-04-27T16:31:54.762Z,10.79
2019-04-27T16:34:24.235Z,10.74
2019-04-27T16:36:53.865Z,10.64
2019-04-27T16:39:23.496Z,10.63
2019-04-27T16:41:53.013Z,10.55
2019-04-27T16:44:22.505Z,10.53
2019-04-27T16:46:52.181Z,10.49
2019-04-27T16:49:23.552Z,10.51
2019-04-27T16:51:53.533Z,10.58
2019-04-27T16:54:23.049Z,10.58
2019-04-27T16:57:01.995Z,10.59
2019-04-27T16:59:42.295Z,10.44
2019-04-27T17:01:55.537Z,10.24
2019-04-27T17:04:25.100Z,10.37
2019-04-27T17:06:54.622Z,10.21
2019-04-27T17:09:24.233Z,10.10
2019-04-27T17:11:53.673Z,10.11
2019-04-27T17:14:35.066Z,10.13
2019-04-27T17:17:15.370Z,10.20
2019-04-27T17:19:49.109Z,10.28
2019-04-27T17:22:18.307Z,10.31
2019-04-27T17:24:49.362Z,10.38
2019-04-27T17:27:22.818Z,10.41
2019-04-27T17:29:57.633Z,10.41
2019-04-27T17:32:25.556Z,10.45
2019-04-27T17:35:02.229Z,10.39
2019-04-27T17:37:32.236Z,10.40
2019-04-27T17:40:00.837Z,10.38
2019-04-27T17:42:30.777Z,10.44
2019-04-27T17:45:00.636Z,10.46
2019-04-27T17:47:31.494Z,10.44
2019-04-27T17:50:00.924Z,10.50
2019-04-27T17:52:30.406Z,10.52
2019-04-27T17:55:00.593Z,10.48
2019-04-27T17:57:31.283Z,10.48
2019-04-27T18:00:03.489Z,10.49
2019-04-27T18:02:38.823Z,10.51
2019-04-27T18:05:09.592Z,10.46
2019-04-27T18:07:41.825Z,10.46
2019-04-27T18:10:13.382Z,10.46
2019-04-27T18:12:44.531Z,10.37
2019-04-27T18:15:15.844Z,10.38
2019-04-27T18:17:51.739Z,10.34
2019-04-27T18:20:23.633Z,10.38
2019-04-27T18:23:01.153Z,10.41
2019-04-27T18:25:35.554Z,10.46
2019-04-27T18:28:08.090Z,10.47
2019-04-27T18:30:42.120Z,10.39
2019-04-27T18:33:11.811Z,10.39
2019-04-27T18:35:41.252Z,10.35
2019-04-27T18:38:11.762Z,10.34
2019-04-27T18:40:41.180Z,10.32
2019-04-27T18:43:12.407Z,10.37
2019-04-27T18:45:45.056Z,10.26
2019-04-27T18:48:14.923Z,10.30
2019-04-27T18:50:53.311Z,10.32
2019-04-27T18:53:28.900Z,10.29
2019-04-27T18:56:04.880Z,10.24
2019-04-27T18:58:29.825Z,10.24
2019-04-27T19:00:59.250Z,10.29
2019-04-27T19:03:31.854Z,10.28
2019-04-27T19:06:02.924Z,10.30
2019-04-27T19:08:32.437Z,10.28
2019-04-27T19:11:04.670Z,10.32
2019-04-27T19:13:33.136Z,10.34
2019-04-27T19:16:02.698Z,10.38
2019-04-27T19:18:32.208Z,10.40
2019-04-27T19:21:01.736Z,10.38
2019-04-27T19:23:31.155Z,10.37
2019-04-27T19:26:11.321Z,10.36
2019-04-27T19:28:48.478Z,10.35
2019-04-27T19:31:19.579Z,10.36
2019-04-27T19:33:50.087Z,10.43
2019-04-27T19:36:19.602Z,10.47
2019-04-27T19:38:49.756Z,10.43
2019-04-27T19:41:19.465Z,10.39
2019-04-27T19:43:49.021Z,10.40
2019-04-27T19:46:20.077Z,10.40
2019-04-27T19:48:50.054Z,10.40
2019-04-27T19:51:19.615Z,10.45
2019-04-27T19:53:49.060Z,10.47
2019-04-27T19:56:20.993Z,10.42
2019-04-27T19:58:52.404Z,10.37
2019-04-27T20:01:23.800Z,10.32
2019-04-27T20:03:54.958Z,10.33
2019-04-27T20:06:24.415Z,10.28
2019-04-27T20:08:55.481Z,10.28
2019-04-27T20:11:25.027Z,10.33
2019-04-27T20:13:54.481Z,10.37
2019-04-27T20:16:23.889Z,10.37
2019-04-27T20:18:53.331Z,10.36
2019-04-27T20:21:22.771Z,10.36
2019-04-27T20:23:52.194Z,10.38
2019-04-27T20:26:21.708Z,10.45
2019-04-27T20:28:51.411Z,10.45
2019-04-27T20:31:20.954Z,10.46
2019-04-27T20:33:50.390Z,10.45
2019-04-27T20:36:21.372Z,10.36
2019-04-27T20:38:51.022Z,10.40
2019-04-27T20:41:21.841Z,10.41
2019-04-27T20:43:51.560Z,10.44
2019-04-27T20:46:22.728Z,10.48
2019-04-27T20:48:53.453Z,10.44
2019-04-27T20:51:24.499Z,10.39
2019-04-27T20:53:55.590Z,10.31
2019-04-27T20:56:25.012Z,10.30
2019-04-27T20:58:54.455Z,10.29
2019-04-27T21:01:23.873Z,10.32
2019-04-27T21:03:54.954Z,10.28
2019-04-27T21:06:26.141Z,10.22
2019-04-27T21:08:55.599Z,10.18
2019-04-27T21:11:26.646Z,10.18
2019-04-27T21:13:57.027Z,10.07
2019-04-27T21:16:26.659Z,10.08
2019-04-27T21:18:56.107Z,10.08
2019-04-27T21:21:25.541Z,10.14
2019-04-27T21:23:54.985Z,10.11
2019-04-27T21:26:24.404Z,10.12
2019-04-27T21:28:53.860Z,10.05
2019-04-27T21:31:23.306Z,10.06
2019-04-27T21:33:52.802Z,10.11
2019-04-27T21:36:22.237Z,10.11
2019-04-27T21:38:52.165Z,10.11
2019-04-27T21:41:22.720Z,10.08
2019-04-27T21:43:52.304Z,10.07
2019-04-27T21:46:24.815Z,10.05
2019-04-27T21:48:54.243Z,10.08
2019-04-27T21:51:23.679Z,10.12
2019-04-27T21:54:00.898Z,10.14
2019-04-27T21:56:31.263Z,10.14
2019-04-27T21:59:01.101Z,10.16
2019-04-27T22:01:32.549Z,10.14
2019-04-27T22:04:05.751Z,10.07
2019-04-27T22:06:35.510Z,10.03
2019-04-27T22:09:08.551Z,10.01
2019-04-27T22:11:40.892Z,9.98
2019-04-27T22:14:11.676Z,9.99
2019-04-27T22:16:42.558Z,10.03
2019-04-27T22:19:12.192Z,10.03
2019-04-27T22:21:42.063Z,10.00
2019-04-27T22:24:13.235Z,10.00
2019-04-27T22:26:42.792Z,9.94
2019-04-27T22:29:12.238Z,9.89
2019-04-27T22:31:43.358Z,9.87
2019-04-27T22:34:13.889Z,9.82
2019-04-27T22:36:43.365Z,9.82
2019-04-27T22:39:14.573Z,9.80
2019-04-27T22:41:45.712Z,9.78
2019-04-27T22:44:21.499Z,9.78
2019-04-27T22:46:52.572Z,9.78
2019-04-27T22:49:22.019Z,9.82
2019-04-27T22:51:51.501Z,9.86
2019-04-27T22:54:21.779Z,9.88
2019-04-27T22:56:55.898Z,9.89
2019-04-27T22:59:32.944Z,9.86
2019-04-27T23:02:11.314Z,9.89
2019-04-27T23:04:45.588Z,9.91
2019-04-27T23:07:15.173Z,9.90
2019-04-27T23:09:44.677Z,9.87
2019-04-27T23:12:14.174Z,9.87
2019-04-27T23:14:43.745Z,9.81
2019-04-27T23:17:31.745Z,9.76
2019-04-27T23:20:01.563Z,9.76
2019-04-27T23:22:31.706Z,9.69
2019-04-27T23:25:01.185Z,9.65
2019-04-27T23:27:31.840Z,9.60
2019-04-27T23:30:01.646Z,9.57
2019-04-27T23:32:45.199Z,9.58
2019-04-27T23:35:14.774Z,9.61
2019-04-27T23:37:44.278Z,9.64
2019-04-27T23:40:14.827Z,9.66
2019-04-27T23:42:44.397Z,9.70
2019-04-27T23:45:14.451Z,9.70
2019-04-27T23:47:43.908Z,9.71
2019-04-27T23:50:15.170Z,9.71
2019-04-27T23:52:52.604Z,9.68
2019-04-27T23:55:23.810Z,9.71
2019-04-27T23:57:54.110Z,9.72
